sensor_id;sensor_type;location;lat;lon;timestamp;pressure;altitude;pressure_sealevel;temperature;humidity
71764;BME280;59602;52.142;5.408;2023-06-14T00:02:26;101625.50;;;20.75;45.39
71764;BME280;59602;52.142;5.408;2023-06-14T00:04:53;101630.16;;;20.78;45.24
71764;BME280;59602;52.142;5.408;2023-06-14T00:07:34;101637.59;;;20.81;45.05
71764;BME280;59602;52.142;5.408;2023-06-14T00:10:02;101624.19;;;20.80;44.82
71764;BME280;59602;52.142;5.408;2023-06-14T00:12:28;101631.78;;;20.76;45.05
71764;BME280;59602;52.142;5.408;2023-06-14T00:14:55;101621.97;;;20.75;45.06
71764;BME280;59602;52.142;5.408;2023-06-14T00:17:21;101624.28;;;20.76;45.67
71764;BME280;59602;52.142;5.408;2023-06-14T00:19:48;101624.38;;;20.72;45.17
71764;BME280;59602;52.142;5.408;2023-06-14T00:22:15;101626.38;;;20.72;44.93
71764;BME280;59602;52.142;5.408;2023-06-14T00:24:42;101627.91;;;20.73;45.42
71764;BME280;59602;52.142;5.408;2023-06-14T00:27:09;101631.53;;;20.70;45.30
71764;BME280;59602;52.142;5.408;2023-06-14T00:29:36;101632.66;;;20.72;45.44
71764;BME280;59602;52.142;5.408;2023-06-14T00:32:03;101640.59;;;20.70;45.12
71764;BME280;59602;52.142;5.408;2023-06-14T00:34:30;101632.72;;;20.69;45.22
71764;BME280;59602;52.142;5.408;2023-06-14T00:36:56;101638.72;;;20.67;44.88
71764;BME280;59602;52.142;5.408;2023-06-14T00:39:23;101633.25;;;20.64;46.52
71764;BME280;59602;52.142;5.408;2023-06-14T00:41:49;101631.69;;;20.63;45.48
71764;BME280;59602;52.142;5.408;2023-06-14T00:44:16;101631.69;;;20.63;44.98
71764;BME280;59602;52.142;5.408;2023-06-14T00:46:45;101636.09;;;20.60;44.83
71764;BME280;59602;52.142;5.408;2023-06-14T00:49:14;101631.44;;;20.57;45.27
71764;BME280;59602;52.142;5.408;2023-06-14T00:51:42;101625.47;;;20.59;45.15
71764;BME280;59602;52.142;5.408;2023-06-14T00:54:09;101629.50;;;20.54;44.79
71764;BME280;59602;52.142;5.408;2023-06-14T00:56:36;101624.75;;;20.55;44.92
71764;BME280;59602;52.142;5.408;2023-06-14T00:59:03;101628.25;;;20.59;44.71
71764;BME280;59602;52.142;5.408;2023-06-14T01:01:30;101627.38;;;20.62;44.80
71764;BME280;59602;52.142;5.408;2023-06-14T01:04:03;101626.25;;;20.59;44.58
71764;BME280;59602;52.142;5.408;2023-06-14T01:06:53;101632.56;;;20.60;44.91
71764;BME280;59602;52.142;5.408;2023-06-14T01:12:51;101631.81;;;20.56;44.69
71764;BME280;59602;52.142;5.408;2023-06-14T01:15:20;101630.78;;;20.49;44.96
71764;BME280;59602;52.142;5.408;2023-06-14T01:17:49;101627.59;;;20.51;44.87
71764;BME280;59602;52.142;5.408;2023-06-14T01:20:19;101630.78;;;20.49;44.90
71764;BME280;59602;52.142;5.408;2023-06-14T01:22:56;101626.47;;;20.48;44.76
71764;BME280;59602;52.142;5.408;2023-06-14T01:25:23;101629.22;;;20.48;44.52
71764;BME280;59602;52.142;5.408;2023-06-14T01:27:53;101625.75;;;20.44;44.95
71764;BME280;59602;52.142;5.408;2023-06-14T01:30:21;101628.63;;;20.41;44.75
71764;BME280;59602;52.142;5.408;2023-06-14T01:32:49;101619.63;;;20.37;44.87
71764;BME280;59602;52.142;5.408;2023-06-14T01:35:17;101631.09;;;20.35;44.77
71764;BME280;59602;52.142;5.408;2023-06-14T01:37:46;101626.84;;;20.30;44.84
71764;BME280;59602;52.142;5.408;2023-06-14T01:40:14;101627.72;;;20.27;45.26
71764;BME280;59602;52.142;5.408;2023-06-14T01:42:42;101627.06;;;20.20;46.44
71764;BME280;59602;52.142;5.408;2023-06-14T01:45:13;101633.88;;;20.15;48.28
71764;BME280;59602;52.142;5.408;2023-06-14T01:47:41;101636.84;;;20.04;48.71
71764;BME280;59602;52.142;5.408;2023-06-14T01:50:08;101635.47;;;19.96;48.39
71764;BME280;59602;52.142;5.408;2023-06-14T01:52:36;101636.03;;;19.87;48.02
71764;BME280;59602;52.142;5.408;2023-06-14T01:55:04;101633.81;;;19.79;48.70
71764;BME280;59602;52.142;5.408;2023-06-14T01:57:31;101628.44;;;19.72;50.14
71764;BME280;59602;52.142;5.408;2023-06-14T01:59:58;101638.88;;;19.60;49.95
71764;BME280;59602;52.142;5.408;2023-06-14T02:02:25;101631.94;;;19.52;49.89
71764;BME280;59602;52.142;5.408;2023-06-14T02:04:51;101630.50;;;19.44;50.57
71764;BME280;59602;52.142;5.408;2023-06-14T02:07:18;101633.75;;;19.39;50.07
71764;BME280;59602;52.142;5.408;2023-06-14T02:09:45;101625.25;;;19.29;50.34
71764;BME280;59602;52.142;5.408;2023-06-14T02:12:11;101628.53;;;19.21;50.05
71764;BME280;59602;52.142;5.408;2023-06-14T02:14:38;101637.28;;;19.16;50.28
71764;BME280;59602;52.142;5.408;2023-06-14T02:17:05;101633.44;;;19.10;50.61
71764;BME280;59602;52.142;5.408;2023-06-14T02:19:32;101631.59;;;19.03;50.36
71764;BME280;59602;52.142;5.408;2023-06-14T02:21:59;101630.44;;;19.00;50.80
71764;BME280;59602;52.142;5.408;2023-06-14T02:24:26;101630.09;;;18.98;51.61
71764;BME280;59602;52.142;5.408;2023-06-14T02:26:53;101634.16;;;18.90;50.85
71764;BME280;59602;52.142;5.408;2023-06-14T02:29:20;101637.38;;;18.85;50.88
71764;BME280;59602;52.142;5.408;2023-06-14T02:31:47;101631.91;;;18.81;51.47
71764;BME280;59602;52.142;5.408;2023-06-14T02:34:15;101644.16;;;18.77;51.51
71764;BME280;59602;52.142;5.408;2023-06-14T02:36:44;101642.25;;;18.74;52.29
71764;BME280;59602;52.142;5.408;2023-06-14T02:39:11;101641.88;;;18.72;52.55
71764;BME280;59602;52.142;5.408;2023-06-14T02:41:38;101639.59;;;18.66;51.45
71764;BME280;59602;52.142;5.408;2023-06-14T02:44:05;101642.75;;;18.65;52.10
71764;BME280;59602;52.142;5.408;2023-06-14T02:46:32;101645.19;;;18.59;51.91
71764;BME280;59602;52.142;5.408;2023-06-14T02:48:59;101646.81;;;18.57;52.86
71764;BME280;59602;52.142;5.408;2023-06-14T02:51:26;101647.69;;;18.50;52.06
71764;BME280;59602;52.142;5.408;2023-06-14T02:53:53;101648.88;;;18.49;52.85
71764;BME280;59602;52.142;5.408;2023-06-14T02:56:19;101651.69;;;18.45;52.18
71764;BME280;59602;52.142;5.408;2023-06-14T02:58:46;101648.19;;;18.41;53.11
71764;BME280;59602;52.142;5.408;2023-06-14T03:01:15;101651.00;;;18.38;53.21
71764;BME280;59602;52.142;5.408;2023-06-14T03:03:42;101656.94;;;18.33;53.44
71764;BME280;59602;52.142;5.408;2023-06-14T03:06:09;101662.91;;;18.31;54.18
71764;BME280;59602;52.142;5.408;2023-06-14T03:08:40;101662.94;;;18.28;53.68
71764;BME280;59602;52.142;5.408;2023-06-14T03:11:07;101656.31;;;18.21;53.57
71764;BME280;59602;52.142;5.408;2023-06-14T03:13:35;101666.53;;;18.21;53.62
71764;BME280;59602;52.142;5.408;2023-06-14T03:16:01;101660.31;;;18.17;54.01
71764;BME280;59602;52.142;5.408;2023-06-14T03:18:30;101678.81;;;18.13;54.61
71764;BME280;59602;52.142;5.408;2023-06-14T03:20:57;101667.47;;;18.11;53.29
71764;BME280;59602;52.142;5.408;2023-06-14T03:23:24;101678.47;;;18.11;54.11
71764;BME280;59602;52.142;5.408;2023-06-14T03:25:51;101668.66;;;18.10;54.14
71764;BME280;59602;52.142;5.408;2023-06-14T03:28:18;101677.75;;;18.07;54.11
71764;BME280;59602;52.142;5.408;2023-06-14T03:30:45;101670.28;;;18.03;54.31
71764;BME280;59602;52.142;5.408;2023-06-14T03:33:11;101674.25;;;18.02;54.01
71764;BME280;59602;52.142;5.408;2023-06-14T03:35:38;101676.25;;;17.98;53.32
71764;BME280;59602;52.142;5.408;2023-06-14T03:38:05;101675.09;;;17.96;52.94
71764;BME280;59602;52.142;5.408;2023-06-14T03:40:31;101684.53;;;17.95;53.25
71764;BME280;59602;52.142;5.408;2023-06-14T03:42:58;101681.00;;;17.94;53.64
71764;BME280;59602;52.142;5.408;2023-06-14T03:45:25;101684.91;;;17.97;53.62
71764;BME280;59602;52.142;5.408;2023-06-14T03:47:52;101686.91;;;17.93;53.69
71764;BME280;59602;52.142;5.408;2023-06-14T03:50:19;101684.59;;;17.91;53.75
71764;BME280;59602;52.142;5.408;2023-06-14T03:52:48;101692.06;;;17.91;53.78
71764;BME280;59602;52.142;5.408;2023-06-14T03:55:15;101688.88;;;17.92;53.87
71764;BME280;59602;52.142;5.408;2023-06-14T03:57:45;101687.34;;;17.91;54.54
71764;BME280;59602;52.142;5.408;2023-06-14T04:00:12;101694.00;;;17.90;54.71
71764;BME280;59602;52.142;5.408;2023-06-14T04:02:39;101695.63;;;17.88;55.14
71764;BME280;59602;52.142;5.408;2023-06-14T04:05:06;101704.31;;;17.86;55.59
71764;BME280;59602;52.142;5.408;2023-06-14T04:07:35;101702.72;;;17.85;55.13
71764;BME280;59602;52.142;5.408;2023-06-14T04:10:07;101708.22;;;17.85;55.29
71764;BME280;59602;52.142;5.408;2023-06-14T04:12:35;101709.00;;;17.86;54.82
71764;BME280;59602;52.142;5.408;2023-06-14T04:15:01;101713.72;;;17.85;54.82
71764;BME280;59602;52.142;5.408;2023-06-14T04:17:45;101714.88;;;17.88;53.93
71764;BME280;59602;52.142;5.408;2023-06-14T04:20:12;101712.84;;;17.95;54.81
71764;BME280;59602;52.142;5.408;2023-06-14T04:22:39;101710.09;;;17.95;53.32
71764;BME280;59602;52.142;5.408;2023-06-14T04:25:07;101714.38;;;18.00;52.41
71764;BME280;59602;52.142;5.408;2023-06-14T04:27:34;101713.16;;;18.04;52.72
71764;BME280;59602;52.142;5.408;2023-06-14T04:30:03;101717.78;;;18.11;52.16
71764;BME280;59602;52.142;5.408;2023-06-14T04:32:30;101723.25;;;18.15;52.74
71764;BME280;59602;52.142;5.408;2023-06-14T04:35:00;101722.81;;;18.20;52.10
71764;BME280;59602;52.142;5.408;2023-06-14T04:37:28;101718.06;;;18.20;52.35
71764;BME280;59602;52.142;5.408;2023-06-14T04:39:58;101721.97;;;18.23;51.99
71764;BME280;59602;52.142;5.408;2023-06-14T04:42:24;101718.81;;;18.24;52.16
71764;BME280;59602;52.142;5.408;2023-06-14T04:44:57;101723.13;;;18.25;52.42
71764;BME280;59602;52.142;5.408;2023-06-14T04:47:25;101726.25;;;18.28;52.51
71764;BME280;59602;52.142;5.408;2023-06-14T04:49:57;101733.34;;;18.29;52.27
71764;BME280;59602;52.142;5.408;2023-06-14T04:52:24;101733.69;;;18.31;52.26
71764;BME280;59602;52.142;5.408;2023-06-14T04:54:52;101734.03;;;18.33;52.05
71764;BME280;59602;52.142;5.408;2023-06-14T04:57:20;101731.66;;;18.35;52.50
71764;BME280;59602;52.142;5.408;2023-06-14T04:59:51;101734.00;;;18.40;52.66
71764;BME280;59602;52.142;5.408;2023-06-14T05:02:25;101738.66;;;18.43;52.29
71764;BME280;59602;52.142;5.408;2023-06-14T05:04:53;101736.25;;;18.49;52.44
71764;BME280;59602;52.142;5.408;2023-06-14T05:07:19;101745.59;;;18.55;52.30
71764;BME280;59602;52.142;5.408;2023-06-14T05:09:46;101746.75;;;18.57;52.15
71764;BME280;59602;52.142;5.408;2023-06-14T05:12:13;101742.94;;;18.48;51.74
71764;BME280;59602;52.142;5.408;2023-06-14T05:14:43;101745.66;;;18.51;51.89
71764;BME280;59602;52.142;5.408;2023-06-14T05:17:10;101742.44;;;18.56;52.00
71764;BME280;59602;52.142;5.408;2023-06-14T05:19:36;101746.31;;;18.62;51.31
71764;BME280;59602;52.142;5.408;2023-06-14T05:22:06;101746.25;;;18.66;51.69
71764;BME280;59602;52.142;5.408;2023-06-14T05:24:33;101749.69;;;18.74;51.46
71764;BME280;59602;52.142;5.408;2023-06-14T05:27:00;101747.19;;;18.86;51.40
71764;BME280;59602;52.142;5.408;2023-06-14T05:29:27;101742.72;;;18.96;51.64
71764;BME280;59602;52.142;5.408;2023-06-14T05:31:56;101740.19;;;19.09;51.58
71764;BME280;59602;52.142;5.408;2023-06-14T05:34:23;101753.09;;;19.16;50.98
71764;BME280;59602;52.142;5.408;2023-06-14T05:36:50;101750.25;;;19.19;50.75
71764;BME280;59602;52.142;5.408;2023-06-14T05:39:16;101748.19;;;19.27;50.95
71764;BME280;59602;52.142;5.408;2023-06-14T05:41:43;101758.94;;;19.45;51.02
71764;BME280;59602;52.142;5.408;2023-06-14T05:44:10;101749.56;;;19.62;50.57
71764;BME280;59602;52.142;5.408;2023-06-14T05:46:36;101757.94;;;19.82;50.53
71764;BME280;59602;52.142;5.408;2023-06-14T05:49:19;101758.59;;;19.90;49.84
71764;BME280;59602;52.142;5.408;2023-06-14T05:51:53;101762.31;;;20.03;48.77
71764;BME280;59602;52.142;5.408;2023-06-14T05:54:21;101763.16;;;20.20;47.92
71764;BME280;59602;52.142;5.408;2023-06-14T05:56:48;101761.28;;;20.37;47.57
71764;BME280;59602;52.142;5.408;2023-06-14T05:59:27;101771.19;;;20.55;46.71
71764;BME280;59602;52.142;5.408;2023-06-14T06:02:26;101771.69;;;20.69;46.57
71764;BME280;59602;52.142;5.408;2023-06-14T06:04:53;101766.41;;;20.79;45.52
71764;BME280;59602;52.142;5.408;2023-06-14T06:07:46;101776.00;;;20.90;45.73
71764;BME280;59602;52.142;5.408;2023-06-14T06:10:29;101775.78;;;21.01;44.51
71764;BME280;59602;52.142;5.408;2023-06-14T06:12:56;101779.56;;;21.07;44.50
71764;BME280;59602;52.142;5.408;2023-06-14T06:18:52;101785.09;;;21.44;43.95
71764;BME280;59602;52.142;5.408;2023-06-14T06:21:19;101788.81;;;21.53;43.99
71764;BME280;59602;52.142;5.408;2023-06-14T06:23:48;101777.91;;;21.63;43.55
71764;BME280;59602;52.142;5.408;2023-06-14T06:26:15;101785.38;;;21.66;42.99
71764;BME280;59602;52.142;5.408;2023-06-14T06:28:43;101782.41;;;21.73;42.84
71764;BME280;59602;52.142;5.408;2023-06-14T06:31:36;101784.38;;;21.89;43.09
71764;BME280;59602;52.142;5.408;2023-06-14T06:34:09;101778.91;;;22.02;41.84
71764;BME280;59602;52.142;5.408;2023-06-14T06:36:58;101790.22;;;22.07;41.66
71764;BME280;59602;52.142;5.408;2023-06-14T06:39:27;101791.25;;;22.13;41.59
71764;BME280;59602;52.142;5.408;2023-06-14T06:41:59;101793.56;;;22.31;42.20
71764;BME280;59602;52.142;5.408;2023-06-14T07:18:17;101819.53;;;21.75;41.39
71764;BME280;59602;52.142;5.408;2023-06-14T07:30:01;101835.41;;;21.88;41.66
71764;BME280;59602;52.142;5.408;2023-06-14T07:32:33;101832.50;;;21.95;42.04
71764;BME280;59602;52.142;5.408;2023-06-14T07:39:18;101842.75;;;22.27;41.02
71764;BME280;59602;52.142;5.408;2023-06-14T07:42:37;101841.31;;;22.23;40.42
71764;BME280;59602;52.142;5.408;2023-06-14T07:45:33;101836.28;;;22.17;40.58
71764;BME280;59602;52.142;5.408;2023-06-14T07:56:01;101842.53;;;22.51;40.73
71764;BME280;59602;52.142;5.408;2023-06-14T08:00:52;101849.06;;;22.57;40.05
71764;BME280;59602;52.142;5.408;2023-06-14T08:03:16;101847.19;;;22.54;39.22
71764;BME280;59602;52.142;5.408;2023-06-14T08:06:08;101846.50;;;22.50;38.47
71764;BME280;59602;52.142;5.408;2023-06-14T08:09:13;101862.38;;;22.49;38.17
71764;BME280;59602;52.142;5.408;2023-06-14T08:11:51;101853.16;;;22.52;39.36
71764;BME280;59602;52.142;5.408;2023-06-14T08:15:07;101853.56;;;22.67;39.54
71764;BME280;59602;52.142;5.408;2023-06-14T08:18:52;101853.34;;;22.74;38.75
71764;BME280;59602;52.142;5.408;2023-06-14T08:22:05;101850.69;;;22.71;37.63
71764;BME280;59602;52.142;5.408;2023-06-14T08:25:18;101848.34;;;22.69;38.88
71764;BME280;59602;52.142;5.408;2023-06-14T08:28:32;101845.72;;;22.78;38.76
71764;BME280;59602;52.142;5.408;2023-06-14T08:35:50;101848.72;;;22.84;38.28
71764;BME280;59602;52.142;5.408;2023-06-14T08:38:54;101847.94;;;22.84;36.40
71764;BME280;59602;52.142;5.408;2023-06-14T08:41:46;101855.41;;;22.87;37.13
71764;BME280;59602;52.142;5.408;2023-06-14T09:03:21;101842.03;;;23.11;34.80
71764;BME280;59602;52.142;5.408;2023-06-14T09:06:21;101842.69;;;23.15;35.50
71764;BME280;59602;52.142;5.408;2023-06-14T09:12:35;101846.13;;;23.19;35.38
71764;BME280;59602;52.142;5.408;2023-06-14T09:19:46;101855.47;;;23.25;34.66
71764;BME280;59602;52.142;5.408;2023-06-14T09:22:29;101854.25;;;23.26;35.07
71764;BME280;59602;52.142;5.408;2023-06-14T09:26:06;101858.78;;;23.33;35.04
71764;BME280;59602;52.142;5.408;2023-06-14T09:32:19;101863.13;;;23.34;34.38
71764;BME280;59602;52.142;5.408;2023-06-14T09:34:55;101863.81;;;23.38;33.84
71764;BME280;59602;52.142;5.408;2023-06-14T09:38:23;101869.03;;;23.36;32.85
71764;BME280;59602;52.142;5.408;2023-06-14T09:45:07;101866.69;;;23.34;33.21
71764;BME280;59602;52.142;5.408;2023-06-14T09:48:36;101866.13;;;23.39;33.42
71764;BME280;59602;52.142;5.408;2023-06-14T09:51:44;101860.47;;;23.43;33.54
71764;BME280;59602;52.142;5.408;2023-06-14T09:55:09;101858.25;;;23.51;34.02
71764;BME280;59602;52.142;5.408;2023-06-14T10:05:08;101857.47;;;23.63;33.72
71764;BME280;59602;52.142;5.408;2023-06-14T10:08:14;101860.44;;;23.69;34.52
71764;BME280;59602;52.142;5.408;2023-06-14T10:11:08;101855.22;;;23.71;33.44
71764;BME280;59602;52.142;5.408;2023-06-14T10:41:13;101844.94;;;24.19;34.25
71764;BME280;59602;52.142;5.408;2023-06-14T10:47:25;101845.38;;;24.17;32.93
71764;BME280;59602;52.142;5.408;2023-06-14T10:50:08;101841.56;;;24.24;33.75
71764;BME280;59602;52.142;5.408;2023-06-14T11:18:13;101842.72;;;24.49;33.42
71764;BME280;59602;52.142;5.408;2023-06-14T16:42:44;101802.22;;;26.00;29.03
71764;BME280;59602;52.142;5.408;2023-06-14T16:48:28;101809.19;;;25.96;29.02
71764;BME280;59602;52.142;5.408;2023-06-14T16:59:17;101818.63;;;25.98;28.91
71764;BME280;59602;52.142;5.408;2023-06-14T17:05:09;101817.22;;;25.94;28.85
71764;BME280;59602;52.142;5.408;2023-06-14T17:15:12;101821.41;;;25.89;28.72
71764;BME280;59602;52.142;5.408;2023-06-14T17:17:53;101828.53;;;25.90;28.79
71764;BME280;59602;52.142;5.408;2023-06-14T17:20:44;101820.63;;;25.88;28.67
71764;BME280;59602;52.142;5.408;2023-06-14T17:23:12;101821.41;;;25.89;29.23
71764;BME280;59602;52.142;5.408;2023-06-14T17:29:25;101832.09;;;26.00;29.02
71764;BME280;59602;52.142;5.408;2023-06-14T17:32:37;101837.66;;;26.00;29.55
71764;BME280;59602;52.142;5.408;2023-06-14T17:35:54;101839.84;;;26.05;29.12
71764;BME280;59602;52.142;5.408;2023-06-14T17:39:14;101841.41;;;25.97;29.12
71764;BME280;59602;52.142;5.408;2023-06-14T17:42:11;101848.66;;;25.94;29.25
71764;BME280;59602;52.142;5.408;2023-06-14T17:45:50;101845.84;;;25.94;29.29
71764;BME280;59602;52.142;5.408;2023-06-14T17:48:23;101847.44;;;25.95;29.94
71764;BME280;59602;52.142;5.408;2023-06-14T18:01:24;101848.66;;;25.94;29.89
71764;BME280;59602;52.142;5.408;2023-06-14T18:10:55;101853.72;;;25.86;30.42
71764;BME280;59602;52.142;5.408;2023-06-14T18:24:30;101865.13;;;25.61;31.30
71764;BME280;59602;52.142;5.408;2023-06-14T18:28:30;101866.78;;;25.49;31.56
71764;BME280;59602;52.142;5.408;2023-06-14T18:41:47;101872.16;;;25.34;33.06
71764;BME280;59602;52.142;5.408;2023-06-14T18:51:18;101879.78;;;24.90;33.67
71764;BME280;59602;52.142;5.408;2023-06-14T18:58:28;101884.47;;;25.02;33.56
71764;BME280;59602;52.142;5.408;2023-06-14T19:01:05;101887.25;;;25.02;33.80
71764;BME280;59602;52.142;5.408;2023-06-14T19:03:48;101879.38;;;25.00;34.01
71764;BME280;59602;52.142;5.408;2023-06-14T19:06:39;101877.81;;;24.99;33.92
71764;BME280;59602;52.142;5.408;2023-06-14T19:09:20;101881.53;;;24.96;34.34
71764;BME280;59602;52.142;5.408;2023-06-14T19:12:15;101888.47;;;24.92;34.47
71764;BME280;59602;52.142;5.408;2023-06-14T19:14:59;101889.78;;;24.87;34.72
71764;BME280;59602;52.142;5.408;2023-06-14T19:17:34;101892.72;;;24.83;34.70
71764;BME280;59602;52.142;5.408;2023-06-14T19:20:01;101897.31;;;24.77;34.97
71764;BME280;59602;52.142;5.408;2023-06-14T19:22:28;101896.22;;;24.75;34.41
71764;BME280;59602;52.142;5.408;2023-06-14T19:24:55;101895.56;;;24.71;35.32
71764;BME280;59602;52.142;5.408;2023-06-14T19:27:22;101894.59;;;24.64;38.14
71764;BME280;59602;52.142;5.408;2023-06-14T19:29:49;101905.53;;;24.59;35.58
71764;BME280;59602;52.142;5.408;2023-06-14T19:32:18;101902.84;;;24.55;38.87
71764;BME280;59602;52.142;5.408;2023-06-14T19:35:07;101908.22;;;24.50;36.42
71764;BME280;59602;52.142;5.408;2023-06-14T19:37:36;101912.34;;;24.45;37.44
71764;BME280;59602;52.142;5.408;2023-06-14T19:40:09;101922.81;;;24.41;37.03
71764;BME280;59602;52.142;5.408;2023-06-14T19:42:57;101920.72;;;24.32;37.53
71764;BME280;59602;52.142;5.408;2023-06-14T19:45:45;101920.50;;;24.27;37.88
71764;BME280;59602;52.142;5.408;2023-06-14T19:48:12;101923.53;;;24.19;37.08
71764;BME280;59602;52.142;5.408;2023-06-14T19:51:01;101918.97;;;24.13;40.31
71764;BME280;59602;52.142;5.408;2023-06-14T19:53:27;101925.78;;;23.99;42.96
71764;BME280;59602;52.142;5.408;2023-06-14T19:55:54;101925.78;;;23.86;43.59
71764;BME280;59602;52.142;5.408;2023-06-14T19:58:55;101929.69;;;23.76;41.47
71764;BME280;59602;52.142;5.408;2023-06-14T20:01:38;101925.78;;;23.60;42.19
71764;BME280;59602;52.142;5.408;2023-06-14T20:04:06;101926.44;;;23.52;43.42
71764;BME280;59602;52.142;5.408;2023-06-14T20:06:34;101928.00;;;23.40;43.14
71764;BME280;59602;52.142;5.408;2023-06-14T20:09:01;101935.75;;;23.32;43.03
71764;BME280;59602;52.142;5.408;2023-06-14T20:11:53;101939.94;;;23.24;44.88
71764;BME280;59602;52.142;5.408;2023-06-14T20:14:20;101935.38;;;23.17;46.14
71764;BME280;59602;52.142;5.408;2023-06-14T20:16:47;101941.69;;;23.05;44.28
71764;BME280;59602;52.142;5.408;2023-06-14T20:19:13;101940.28;;;22.97;43.24
71764;BME280;59602;52.142;5.408;2023-06-14T20:21:41;101946.81;;;22.90;43.59
71764;BME280;59602;52.142;5.408;2023-06-14T20:24:08;101950.13;;;22.85;43.99
71764;BME280;59602;52.142;5.408;2023-06-14T20:26:35;101951.09;;;22.78;43.16
71764;BME280;59602;52.142;5.408;2023-06-14T20:29:03;101955.59;;;22.72;43.63
71764;BME280;59602;52.142;5.408;2023-06-14T20:31:31;101947.91;;;22.64;43.78
71764;BME280;59602;52.142;5.408;2023-06-14T20:33:59;101957.19;;;22.57;43.40
71764;BME280;59602;52.142;5.408;2023-06-14T20:36:25;101947.06;;;22.50;45.82
71764;BME280;59602;52.142;5.408;2023-06-14T20:38:57;101952.81;;;22.43;44.77
71764;BME280;59602;52.142;5.408;2023-06-14T20:41:24;101948.22;;;22.36;44.52
71764;BME280;59602;52.142;5.408;2023-06-14T20:43:51;101953.19;;;22.29;44.85
71764;BME280;59602;52.142;5.408;2023-06-14T20:46:19;101956.03;;;22.25;44.73
71764;BME280;59602;52.142;5.408;2023-06-14T20:48:46;101951.75;;;22.21;44.83
71764;BME280;59602;52.142;5.408;2023-06-14T20:51:18;101951.50;;;22.15;45.39
71764;BME280;59602;52.142;5.408;2023-06-14T20:53:45;101950.81;;;22.11;45.62
71764;BME280;59602;52.142;5.408;2023-06-14T20:56:12;101949.69;;;22.08;45.62
71764;BME280;59602;52.142;5.408;2023-06-14T20:58:41;101955.72;;;22.03;46.47
71764;BME280;59602;52.142;5.408;2023-06-14T21:01:31;101959.44;;;21.96;46.61
71764;BME280;59602;52.142;5.408;2023-06-14T21:04:53;101959.63;;;21.89;46.63
71764;BME280;59602;52.142;5.408;2023-06-14T21:07:39;101968.03;;;21.86;47.78
71764;BME280;59602;52.142;5.408;2023-06-14T21:10:43;101973.78;;;21.75;47.40
71764;BME280;59602;52.142;5.408;2023-06-14T21:13:32;101973.50;;;21.69;47.66
71764;BME280;59602;52.142;5.408;2023-06-14T21:15:59;101973.59;;;21.66;47.31
71764;BME280;59602;52.142;5.408;2023-06-14T21:18:47;101967.00;;;21.60;47.10
71764;BME280;59602;52.142;5.408;2023-06-14T21:21:16;101980.13;;;21.55;47.55
71764;BME280;59602;52.142;5.408;2023-06-14T21:24:08;101971.53;;;21.50;47.96
71764;BME280;59602;52.142;5.408;2023-06-14T21:26:41;101962.13;;;21.47;48.75
71764;BME280;59602;52.142;5.408;2023-06-14T21:29:14;101975.69;;;21.42;48.19
71764;BME280;59602;52.142;5.408;2023-06-14T21:32:10;101974.22;;;21.33;48.25
71764;BME280;59602;52.142;5.408;2023-06-14T21:34:37;101979.81;;;21.30;48.19
71764;BME280;59602;52.142;5.408;2023-06-14T21:37:06;101969.63;;;21.27;48.79
71764;BME280;59602;52.142;5.408;2023-06-14T21:39:55;101976.44;;;21.22;48.60
71764;BME280;59602;52.142;5.408;2023-06-14T21:42:22;101982.84;;;21.19;49.18
71764;BME280;59602;52.142;5.408;2023-06-14T21:44:51;101974.59;;;21.15;48.84
71764;BME280;59602;52.142;5.408;2023-06-14T21:47:38;101977.09;;;21.10;49.38
71764;BME280;59602;52.142;5.408;2023-06-14T21:53:51;101972.88;;;21.02;49.81
71764;BME280;59602;52.142;5.408;2023-06-14T21:56:51;101987.22;;;20.97;49.62
71764;BME280;59602;52.142;5.408;2023-06-14T21:59:41;101987.28;;;20.93;49.93
71764;BME280;59602;52.142;5.408;2023-06-14T22:02:35;101983.78;;;20.89;49.55
71764;BME280;59602;52.142;5.408;2023-06-14T22:08:33;101990.22;;;20.82;50.13
71764;BME280;59602;52.142;5.408;2023-06-14T22:11:14;101990.31;;;20.79;49.51
71764;BME280;59602;52.142;5.408;2023-06-14T22:13:41;101989.59;;;20.75;50.28
71764;BME280;59602;52.142;5.408;2023-06-14T22:16:12;101991.63;;;20.70;50.65
71764;BME280;59602;52.142;5.408;2023-06-14T22:19:11;101985.00;;;20.64;50.64
71764;BME280;59602;52.142;5.408;2023-06-14T22:21:45;101988.25;;;20.59;50.78
71764;BME280;59602;52.142;5.408;2023-06-14T22:24:38;101989.50;;;20.55;50.40
71764;BME280;59602;52.142;5.408;2023-06-14T22:27:09;101999.41;;;20.52;50.91
71764;BME280;59602;52.142;5.408;2023-06-14T22:30:14;101996.34;;;20.46;50.59
71764;BME280;59602;52.142;5.408;2023-06-14T22:33:18;101999.94;;;20.43;50.70
71764;BME280;59602;52.142;5.408;2023-06-14T22:36:16;101996.47;;;20.39;50.96
71764;BME280;59602;52.142;5.408;2023-06-14T22:39:06;101995.72;;;20.35;50.72
71764;BME280;59602;52.142;5.408;2023-06-14T22:42:14;102000.47;;;20.35;51.25
71764;BME280;59602;52.142;5.408;2023-06-14T22:45:10;101991.88;;;20.29;51.00
71764;BME280;59602;52.142;5.408;2023-06-14T22:48:14;101994.75;;;20.22;50.78
71764;BME280;59602;52.142;5.408;2023-06-14T22:50:41;101996.00;;;20.17;51.28
71764;BME280;59602;52.142;5.408;2023-06-14T22:53:08;101991.34;;;20.14;51.34
71764;BME280;59602;52.142;5.408;2023-06-14T22:56:22;102000.03;;;20.13;51.44
71764;BME280;59602;52.142;5.408;2023-06-14T22:58:50;102002.94;;;20.02;49.34
71764;BME280;59602;52.142;5.408;2023-06-14T23:01:20;101998.56;;;20.04;50.51
71764;BME280;59602;52.142;5.408;2023-06-14T23:04:26;102002.91;;;20.05;50.13
71764;BME280;59602;52.142;5.408;2023-06-14T23:06:53;102005.22;;;20.07;49.19
71764;BME280;59602;52.142;5.408;2023-06-14T23:09:21;102005.19;;;20.10;50.08
71764;BME280;59602;52.142;5.408;2023-06-14T23:11:48;102003.16;;;20.15;49.74